Time;durP1;ratioP1;P1;durP2;ratioP2;P2;SDS_P1;SDS_P2;PMS_P1;PMS_P2;Temp;Humidity;BMP_temperature;BMP_pressure;BME280_temperature;BME280_humidity;BME280_pressure;Samples;Min_cycle;Max_cycle;Signal;HPM_P1;HPM_P2
2021/01/03 00:00:25;;;;;;;;;;;;;;;;;;2053713;28;7332;-62
2021/01/03 00:01:27;;;;;;;;;;;;;;;;;;2053524;28;7046;-63
2021/01/03 00:02:29;;;;;;;;;;;;;;;;;;2053103;28;7097;-63
2021/01/03 00:03:31;;;;;;;;;;;;;;;;;;2053833;28;7089;-63
2021/01/03 00:04:38;;;;;;;;;;;;;;;;;;2054092;28;7097;-64
2021/01/03 00:05:40;;;;;;;;;;;;;;;;;;2053725;28;7014;-63
2021/01/03 00:06:42;;;;;;;;;;;;;;;;;;2053765;28;7053;-62
2021/01/03 00:07:44;;;;;;;;;;;;;;;;;;2053580;28;7093;-64
2021/01/03 00:08:48;;;;;;;;;;;;;;;;;;2053973;28;8060;-64
2021/01/03 00:09:50;;;;;;;;;;;;;;;;;;2054048;28;7014;-63
2021/01/03 00:10:52;;;;;;;;;;;;;;;;;;2053508;28;7046;-64
2021/01/03 00:11:55;;;;;;;;;;;;;;;;;;2053062;28;7013;-63
2021/01/03 00:12:57;;;;;;;;;;;;;;;;;;2053451;28;7010;-64
2021/01/03 00:13:59;;;;;;;;;;;;;;;;;;2053602;28;7100;-62
2021/01/03 00:15:01;;;;;;;;;;;;;;;;;;2053727;28;7014;-62
2021/01/03 00:16:03;;;;;;;;;;;;;;;;;;2053772;28;7018;-64
2021/01/03 00:17:05;;;;;;;;;;;;;;;;;;2053949;28;7013;-63
2021/01/03 00:18:07;;;;;;;;;;;;;;;;;;2052853;28;7096;-64
2021/01/03 00:19:09;;;;;;;;;;;;;;;;;;2053056;28;7006;-61
2021/01/03 00:20:14;;;;;;;;;;;;;;;;;;2052204;28;7005;-63
2021/01/03 00:21:16;;;;;;;;;;;;;;;;;;2044034;28;8098;-63
2021/01/03 00:22:18;;;;;;;;;;;;;;;;;;2045236;28;7010;-64
2021/01/03 00:23:20;;;;;;;;;;;;;;;;;;2053258;28;7060;-62
2021/01/03 00:24:22;;;;;;;;;;;;;;;;;;2053749;28;7097;-63
2021/01/03 00:25:26;;;;;;;;;;;;;;;;;;2044735;28;7238;-64
2021/01/03 00:26:28;;;;;;;;;;;;;;;;;;2044963;28;7121;-64
2021/01/03 00:27:30;;;;;;;;;;;;;;;;;;2052904;28;7042;-65
2021/01/03 00:28:32;;;;;;;;;;;;;;;;;;2054079;28;7333;-65
2021/01/03 00:29:34;;;;;;;;;;;;;;;;;;2054540;28;7141;-62
2021/01/03 00:30:36;;;;;;;;;;;;;;;;;;2054274;28;7057;-63
2021/01/03 00:31:42;;;;;;;;;;;;;;;;;;2053136;28;7002;-61
2021/01/03 00:32:45;;;;;;;;;;;;;;;;;;2052872;28;7151;-61
2021/01/03 00:33:47;;;;;;;;;;;;;;;;;;2053706;28;7017;-64
2021/01/03 00:34:49;;;;;;;;;;;;;;;;;;2051950;28;8288;-64
2021/01/03 00:35:50;;;;;;;;;;;;;;;;;;2052612;28;7344;-64
2021/01/03 00:36:53;;;;;;;;;;;;;;;;;;2052780;28;7324;-62
2021/01/03 00:38:02;;;;;;;;;;;;;;;;;;2053044;28;7093;-62
2021/01/03 00:39:05;;;;;;;;;;;;;;;;;;2053037;28;7014;-64
2021/01/03 00:40:09;;;;;;;;;;;;;;;;;;2052516;28;7127;-63
2021/01/03 00:41:11;;;;;;;;;;;;;;;;;;2051335;28;8160;-64
2021/01/03 00:42:22;;;;;;;;;;;;;;;;;;2051366;28;7050;-64
2021/01/03 00:43:25;;;;;;;;;;;;;;;;;;2053026;28;7006;-63
2021/01/03 00:44:27;;;;;;;;;;;;;;;;;;2053366;28;7010;-64
2021/01/03 00:45:30;;;;;;;;;;;;;;;;;;2053666;28;7013;-61
2021/01/03 00:46:32;;;;;;;;;;;;;;;;;;2053637;28;7132;-63
2021/01/03 00:47:35;;;;;;;;;;;;;;;;;;2053556;28;8048;-64
2021/01/03 00:48:36;;;;;;;;;;;;;;;;;;2054321;28;7009;-62
2021/01/03 00:49:41;;;;;;;;;;;;;;;;;;2053951;28;7014;-64
2021/01/03 00:50:44;;;;;;;;;;;;;;;;;;2053631;28;7014;-61
2021/01/03 00:51:46;;;;;;;;;;;;;;;;;;2051810;28;7010;-62
2021/01/03 00:52:48;;;;;;;;;;;;;;;;;;2053259;28;7446;-63
2021/01/03 00:53:50;;;;;;;;;;;;;;;;;;2053282;28;7054;-62
2021/01/03 00:54:52;;;;;;;;;;;;;;;;;;2051502;28;7005;-64
2021/01/03 00:55:54;;;;;;;;;;;;;;;;;;2053365;28;7041;-62
2021/01/03 00:56:56;;;;;;;;;;;;;;;;;;2053553;28;7213;-61
2021/01/03 00:57:58;;;;;;;;;;;;;;;;;;2053619;28;8024;-64
2021/01/03 00:59:00;;;;;;;;;;;;;;;;;;2052057;28;7010;-63
2021/01/03 01:00:06;;;;;;;;;;;;;;;;;;2053421;28;7006;-63
2021/01/03 01:01:08;;;;;;;;;;;;;;;;;;2053921;28;7089;-64
2021/01/03 01:02:10;;;;;;;;;;;;;;;;;;2052105;28;7022;-62
2021/01/03 01:03:12;;;;;;;;;;;;;;;;;;2053267;28;7333;-64
2021/01/03 01:04:14;;;;;;;;;;;;;;;;;;2053659;28;8047;-62
2021/01/03 01:05:17;;;;;;;;;;;;;;;;;;2054161;28;7145;-63
2021/01/03 01:06:19;;;;;;;;;;;;;;;;;;2053405;28;7073;-63
2021/01/03 01:07:21;;;;;;;;;;;;;;;;;;2051970;28;7109;-63
2021/01/03 01:08:23;;;;;;;;;;;;;;;;;;2052304;28;7101;-63
2021/01/03 01:09:25;;;;;;;;;;;;;;;;;;2053460;28;7405;-64
2021/01/03 01:10:28;;;;;;;;;;;;;;;;;;2053660;28;7096;-63
2021/01/03 01:11:30;;;;;;;;;;;;;;;;;;2052281;28;7037;-64
2021/01/03 01:12:34;;;;;;;;;;;;;;;;;;2053786;28;7510;-63
2021/01/03 01:13:36;;;;;;;;;;;;;;;;;;2053920;28;7123;-62
2021/01/03 01:14:38;;;;;;;;;;;;;;;;;;2052868;28;7591;-62
2021/01/03 01:15:40;;;;;;;;;;;;;;;;;;2053394;28;7096;-64
2021/01/03 01:16:42;;;;;;;;;;;;;;;;;;2053018;28;7233;-63
2021/01/03 01:17:45;;;;;;;;;;;;;;;;;;2053456;28;7093;-64
2021/01/03 01:18:47;;;;;;;;;;;;;;;;;;2053317;28;7113;-63
2021/01/03 01:19:52;;;;;;;;;;;;;;;;;;2048951;28;7018;-62
2021/01/03 01:20:54;;;;;;;;;;;;;;;;;;2047725;28;7121;-63
2021/01/03 01:22:02;;;;;;;;;;;;;;;;;;2048039;28;8225;-64
2021/01/03 01:23:04;;;;;;;;;;;;;;;;;;2048583;28;7101;-63
2021/01/03 01:24:06;;;;;;;;;;;;;;;;;;2046708;28;8066;-62
2021/01/03 01:25:09;;;;;;;;;;;;;;;;;;2048919;28;7017;-61
2021/01/03 01:26:10;;;;;;;;;;;;;;;;;;2049142;28;7014;-62
2021/01/03 01:27:13;;;;;;;;;;;;;;;;;;2052811;28;7097;-62
2021/01/03 01:28:14;;;;;;;;;;;;;;;;;;2055553;28;7096;-64
2021/01/03 01:29:16;;;;;;;;;;;;;;;;;;2056818;28;7093;-63
2021/01/03 01:30:19;;;;;;;;;;;;;;;;;;2055828;28;7101;-64
2021/01/03 01:31:21;;;;;;;;;;;;;;;;;;2056250;28;7014;-65
2021/01/03 01:32:23;;;;;;;;;;;;;;;;;;2056743;28;7014;-62
2021/01/03 01:33:25;;;;;;;;;;;;;;;;;;2055554;28;7006;-63
2021/01/03 01:34:26;;;;;;;;;;;;;;;;;;2056014;28;7009;-65
2021/01/03 01:35:30;;;;;;;;;;;;;;;;;;2050445;28;7149;-61
2021/01/03 01:36:32;;;;;;;;;;;;;;;;;;2054536;28;8044;-62
2021/01/03 01:37:34;;;;;;;;;;;;;;;;;;2057127;28;7009;-64
2021/01/03 01:38:36;;;;;;;;;;;;;;;;;;2057603;28;7143;-63
2021/01/03 01:39:38;;;;;;;;;;;;;;;;;;2055206;28;9923;-64
2021/01/03 01:40:41;;;;;;;;;;;;;;;;;;2055788;28;7006;-61
2021/01/03 01:41:43;;;;;;;;;;;;;;;;;;2055864;28;7097;-64
2021/01/03 01:42:46;;;;;;;;;;;;;;;;;;2053748;28;8112;-63
2021/01/03 01:43:48;;;;;;;;;;;;;;;;;;2055828;28;7026;-62
2021/01/03 01:44:50;;;;;;;;;;;;;;;;;;2055619;28;7022;-63
2021/01/03 01:45:52;;;;;;;;;;;;;;;;;;2055853;28;7010;-64
2021/01/03 01:47:01;;;;;;;;;;;;;;;;;;2055274;28;7014;-62
2021/01/03 01:48:07;;;;;;;;;;;;;;;;;;2055765;28;7098;-63
2021/01/03 01:49:12;;;;;;;;;;;;;;;;;;2056869;28;7018;-62
2021/01/03 01:50:24;;;;;;;;;;;;;;;;;;2055686;28;7026;-64
2021/01/03 01:51:28;;;;;;;;;;;;;;;;;;2056600;28;7025;-62
2021/01/03 01:52:45;;;;;;;;;;;;;;;;;;2055395;28;7050;-62
2021/01/03 01:53:49;;;;;;;;;;;;;;;;;;2055085;28;7014;-63
2021/01/03 01:54:55;;;;;;;;;;;;;;;;;;2057167;28;7046;-64
2021/01/03 01:56:10;;;;;;;;;;;;;;;;;;2055119;28;7009;-63
2021/01/03 01:57:28;;;;;;;;;;;;;;;;;;2055704;28;7014;-65
2021/01/03 01:58:37;;;;;;;;;;;;;;;;;;2045597;28;7114;-63
2021/01/03 01:59:42;;;;;;;;;;;;;;;;;;2048118;28;7014;-63
2021/01/03 02:00:53;;;;;;;;;;;;;;;;;;2054504;28;7354;-61
2021/01/03 02:02:01;;;;;;;;;;;;;;;;;;2055344;28;7418;-64
2021/01/03 02:03:03;;;;;;;;;;;;;;;;;;2054952;28;8023;-62
2021/01/03 02:04:14;;;;;;;;;;;;;;;;;;2055280;28;7010;-63
2021/01/03 02:05:29;;;;;;;;;;;;;;;;;;2054928;28;7422;-65
2021/01/03 02:06:41;;;;;;;;;;;;;;;;;;2054378;28;7233;-63
2021/01/03 02:08:01;;;;;;;;;;;;;;;;;;2055245;28;7013;-64
2021/01/03 02:09:08;;;;;;;;;;;;;;;;;;2055114;28;7092;-65
2021/01/03 02:10:16;;;;;;;;;;;;;;;;;;2053600;28;7097;-64
2021/01/03 02:11:22;;;;;;;;;;;;;;;;;;2054421;28;8071;-63
2021/01/03 02:12:27;;;;;;;;;;;;;;;;;;2054934;28;8006;-64
2021/01/03 02:13:34;;;;;;;;;;;;;;;;;;2055108;28;7466;-64
2021/01/03 02:14:36;;;;;;;;;;;;;;;;;;2055668;28;7096;-64
2021/01/03 02:15:39;;;;;;;;;;;;;;;;;;2056050;28;7125;-64
2021/01/03 02:16:42;;;;;;;;;;;;;;;;;;2055876;28;7022;-64
2021/01/03 02:17:47;;;;;;;;;;;;;;;;;;2055419;28;7025;-64
2021/01/03 02:18:51;;;;;;;;;;;;;;;;;;2055491;28;7033;-64
2021/01/03 02:20:00;;;;;;;;;;;;;;;;;;2054474;28;7014;-64
2021/01/03 02:21:09;;;;;;;;;;;;;;;;;;2055100;28;7097;-64
2021/01/03 02:22:24;;;;;;;;;;;;;;;;;;2054870;28;7046;-62
2021/01/03 02:23:35;;;;;;;;;;;;;;;;;;2055082;28;7069;-63
2021/01/03 02:24:48;;;;;;;;;;;;;;;;;;2055363;28;7253;-63
2021/01/03 02:25:50;;;;;;;;;;;;;;;;;;2055047;28;8119;-62
2021/01/03 02:27:08;;;;;;;;;;;;;;;;;;2055531;28;7093;-64
2021/01/03 02:28:22;;;;;;;;;;;;;;;;;;2054996;28;7006;-63
2021/01/03 02:29:26;;;;;;;;;;;;;;;;;;2054838;28;7010;-64
2021/01/03 02:30:30;;;;;;;;;;;;;;;;;;2055086;28;7006;-62
2021/01/03 02:31:38;;;;;;;;;;;;;;;;;;2054866;28;7006;-64
2021/01/03 02:32:47;;;;;;;;;;;;;;;;;;2054746;28;7074;-63
2021/01/03 02:33:50;;;;;;;;;;;;;;;;;;2054328;28;8019;-62
2021/01/03 02:34:53;;;;;;;;;;;;;;;;;;2054719;28;8014;-63
2021/01/03 02:35:59;;;;;;;;;;;;;;;;;;2054822;28;7117;-62
2021/01/03 02:37:10;;;;;;;;;;;;;;;;;;2055306;28;7017;-63
2021/01/03 02:38:19;;;;;;;;;;;;;;;;;;2052021;28;7010;-63
2021/01/03 02:39:32;;;;;;;;;;;;;;;;;;2055041;28;7105;-64
2021/01/03 02:40:34;;;;;;;;;;;;;;;;;;2055020;28;7042;-63
2021/01/03 02:41:36;;;;;;;;;;;;;;;;;;2055173;28;7117;-64
2021/01/03 02:42:40;;;;;;;;;;;;;;;;;;2052737;28;7017;-62
2021/01/03 02:43:42;;;;;;;;;;;;;;;;;;2053986;28;7042;-63
2021/01/03 02:44:44;;;;;;;;;;;;;;;;;;2054016;28;7010;-63
2021/01/03 02:45:46;;;;;;;;;;;;;;;;;;2055258;28;7042;-64
2021/01/03 02:46:50;;;;;;;;;;;;;;;;;;2054495;28;7014;-64
2021/01/03 02:47:52;;;;;;;;;;;;;;;;;;2054034;28;7129;-63
2021/01/03 02:48:55;;;;;;;;;;;;;;;;;;2053540;28;7038;-63
2021/01/03 02:49:57;;;;;;;;;;;;;;;;;;2054640;28;7105;-63
2021/01/03 02:50:59;;;;;;;;;;;;;;;;;;2054434;28;7038;-64
2021/01/03 02:52:05;;;;;;;;;;;;;;;;;;2054602;28;7014;-64
2021/01/03 02:53:08;;;;;;;;;;;;;;;;;;2054131;28;7046;-65
2021/01/03 02:54:10;;;;;;;;;;;;;;;;;;2054708;28;7451;-62
2021/01/03 02:55:14;;;;;;;;;;;;;;;;;;2054626;28;7041;-64
2021/01/03 02:56:16;;;;;;;;;;;;;;;;;;2054718;28;8044;-63
2021/01/03 02:57:18;;;;;;;;;;;;;;;;;;2054337;28;7047;-63
2021/01/03 02:58:23;;;;;;;;;;;;;;;;;;2046462;28;7010;-64
2021/01/03 02:59:26;;;;;;;;;;;;;;;;;;2046064;28;7014;-63
2021/01/03 03:00:30;;;;;;;;;;;;;;;;;;2053313;28;7093;-64
2021/01/03 03:01:32;;;;;;;;;;;;;;;;;;2054475;28;7010;-63
2021/01/03 03:02:34;;;;;;;;;;;;;;;;;;2055233;28;7009;-63
2021/01/03 03:03:36;;;;;;;;;;;;;;;;;;2054992;28;7097;-64
2021/01/03 03:04:38;;;;;;;;;;;;;;;;;;2054876;28;7014;-64
2021/01/03 03:05:40;;;;;;;;;;;;;;;;;;2054035;28;7013;-62
2021/01/03 03:06:46;;;;;;;;;;;;;;;;;;2054519;28;7010;-62
2021/01/03 03:07:49;;;;;;;;;;;;;;;;;;2054545;28;7958;-62
2021/01/03 03:08:51;;;;;;;;;;;;;;;;;;2054691;28;7025;-63
2021/01/03 03:09:53;;;;;;;;;;;;;;;;;;2054441;28;7097;-62
2021/01/03 03:10:55;;;;;;;;;;;;;;;;;;2054703;28;7010;-63
2021/01/03 03:12:05;;;;;;;;;;;;;;;;;;2054041;28;8056;-62
2021/01/03 03:13:07;;;;;;;;;;;;;;;;;;2054765;28;7010;-64
2021/01/03 03:14:08;;;;;;;;;;;;;;;;;;2054403;28;7025;-62
2021/01/03 03:15:11;;;;;;;;;;;;;;;;;;2054357;28;7109;-63
2021/01/03 03:16:17;;;;;;;;;;;;;;;;;;2054694;28;7040;-63
2021/01/03 03:17:19;;;;;;;;;;;;;;;;;;2054713;28;7014;-62
2021/01/03 03:18:21;;;;;;;;;;;;;;;;;;2054393;28;7010;-64
2021/01/03 03:19:23;;;;;;;;;;;;;;;;;;2054731;28;7009;-63
2021/01/03 03:20:24;;;;;;;;;;;;;;;;;;2055154;28;8075;-63
2021/01/03 03:21:26;;;;;;;;;;;;;;;;;;2054489;28;7997;-62
2021/01/03 03:22:28;;;;;;;;;;;;;;;;;;2054557;28;7009;-63
2021/01/03 03:23:30;;;;;;;;;;;;;;;;;;2053609;28;8036;-63
2021/01/03 03:24:32;;;;;;;;;;;;;;;;;;2052885;28;7010;-64
2021/01/03 03:25:34;;;;;;;;;;;;;;;;;;2054531;28;7127;-64
2021/01/03 03:26:36;;;;;;;;;;;;;;;;;;2054315;28;7359;-64
2021/01/03 03:27:38;;;;;;;;;;;;;;;;;;2054652;28;7088;-62
2021/01/03 03:28:40;;;;;;;;;;;;;;;;;;2054443;28;7142;-62
2021/01/03 03:29:42;;;;;;;;;;;;;;;;;;2054723;28;8047;-62
2021/01/03 03:30:46;;;;;;;;;;;;;;;;;;2054471;28;7085;-63
2021/01/03 03:31:51;;;;;;;;;;;;;;;;;;2054919;28;7157;-62
2021/01/03 03:32:53;;;;;;;;;;;;;;;;;;2054309;28;8048;-62
2021/01/03 03:33:55;;;;;;;;;;;;;;;;;;2054427;28;7301;-63
2021/01/03 03:34:57;;;;;;;;;;;;;;;;;;2054930;28;7010;-64
2021/01/03 03:35:59;;;;;;;;;;;;;;;;;;2054132;28;7037;-63
2021/01/03 03:37:01;;;;;;;;;;;;;;;;;;2054593;28;7046;-63
2021/01/03 03:38:07;;;;;;;;;;;;;;;;;;2054505;28;7010;-62
2021/01/03 03:39:09;;;;;;;;;;;;;;;;;;2053931;28;7009;-62
2021/01/03 03:40:11;;;;;;;;;;;;;;;;;;2054164;28;7017;-64
2021/01/03 03:41:17;;;;;;;;;;;;;;;;;;2054211;28;7014;-62
2021/01/03 03:42:19;;;;;;;;;;;;;;;;;;2054626;28;7010;-62
2021/01/03 03:43:21;;;;;;;;;;;;;;;;;;2054744;28;7050;-64
2021/01/03 03:44:24;;;;;;;;;;;;;;;;;;2054780;28;7042;-61
2021/01/03 03:45:26;;;;;;;;;;;;;;;;;;2053202;28;8018;-63
2021/01/03 03:46:28;;;;;;;;;;;;;;;;;;2054587;28;7009;-62
2021/01/03 03:47:30;;;;;;;;;;;;;;;;;;2045480;28;7010;-63
2021/01/03 03:48:32;;;;;;;;;;;;;;;;;;2045925;28;7073;-64
2021/01/03 03:49:34;;;;;;;;;;;;;;;;;;2052699;28;7093;-65
2021/01/03 03:50:36;;;;;;;;;;;;;;;;;;2054893;28;7026;-63
2021/01/03 03:51:38;;;;;;;;;;;;;;;;;;2054933;28;7009;-63
2021/01/03 03:52:40;;;;;;;;;;;;;;;;;;2054731;28;8034;-64
2021/01/03 03:53:42;;;;;;;;;;;;;;;;;;2054220;28;7046;-64
2021/01/03 03:54:44;;;;;;;;;;;;;;;;;;2054213;28;7010;-63
2021/01/03 03:55:46;;;;;;;;;;;;;;;;;;2053607;28;7054;-64
2021/01/03 03:56:52;;;;;;;;;;;;;;;;;;2054199;28;7128;-62
2021/01/03 03:57:54;;;;;;;;;;;;;;;;;;2054081;28;7026;-64
2021/01/03 03:58:56;;;;;;;;;;;;;;;;;;2054280;28;7009;-63
2021/01/03 03:59:58;;;;;;;;;;;;;;;;;;2054024;28;7060;-63
2021/01/03 04:00:59;;;;;;;;;;;;;;;;;;2053453;28;8424;-64
2021/01/03 04:02:01;;;;;;;;;;;;;;;;;;2054034;28;7096;-61
2021/01/03 04:03:03;;;;;;;;;;;;;;;;;;2054786;28;8048;-62
2021/01/03 04:04:05;;;;;;;;;;;;;;;;;;2053749;28;7043;-64
2021/01/03 04:05:09;;;;;;;;;;;;;;;;;;2053242;28;7013;-61
2021/01/03 04:06:11;;;;;;;;;;;;;;;;;;2055050;28;7021;-64
2021/01/03 04:07:12;;;;;;;;;;;;;;;;;;2054025;28;7046;-62
2021/01/03 04:08:14;;;;;;;;;;;;;;;;;;2054235;28;7352;-64
2021/01/03 04:09:20;;;;;;;;;;;;;;;;;;2054186;28;7006;-63
2021/01/03 04:10:22;;;;;;;;;;;;;;;;;;2053761;28;7046;-64
2021/01/03 04:11:24;;;;;;;;;;;;;;;;;;2054019;28;7010;-63
2021/01/03 04:12:26;;;;;;;;;;;;;;;;;;2053904;28;7046;-63
2021/01/03 04:13:31;;;;;;;;;;;;;;;;;;2053808;28;7317;-62
2021/01/03 04:14:33;;;;;;;;;;;;;;;;;;2053731;28;7088;-63
2021/01/03 04:15:35;;;;;;;;;;;;;;;;;;2054203;28;7089;-64
2021/01/03 04:16:45;;;;;;;;;;;;;;;;;;2053201;28;7101;-63
2021/01/03 04:17:52;;;;;;;;;;;;;;;;;;2054111;28;7089;-63
2021/01/03 04:18:54;;;;;;;;;;;;;;;;;;2051792;28;7096;-64
2021/01/03 04:19:56;;;;;;;;;;;;;;;;;;2054194;28;7340;-63
2021/01/03 04:20:58;;;;;;;;;;;;;;;;;;2054068;28;7093;-64
2021/01/03 04:22:06;;;;;;;;;;;;;;;;;;2054195;28;7105;-63
2021/01/03 04:23:08;;;;;;;;;;;;;;;;;;2054307;28;7006;-65
2021/01/03 04:24:10;;;;;;;;;;;;;;;;;;2053858;28;7089;-63
2021/01/03 04:25:18;;;;;;;;;;;;;;;;;;2053055;28;7185;-63
2021/01/03 04:26:20;;;;;;;;;;;;;;;;;;2054459;28;7046;-63
2021/01/03 04:27:22;;;;;;;;;;;;;;;;;;2053465;28;7037;-65
2021/01/03 04:28:25;;;;;;;;;;;;;;;;;;2053879;28;7494;-64
2021/01/03 04:29:27;;;;;;;;;;;;;;;;;;2054171;28;8052;-63
2021/01/03 04:30:30;;;;;;;;;;;;;;;;;;2053770;28;7009;-64
2021/01/03 04:31:32;;;;;;;;;;;;;;;;;;2053935;28;7142;-64
2021/01/03 04:32:34;;;;;;;;;;;;;;;;;;2053672;28;7101;-63
2021/01/03 04:33:37;;;;;;;;;;;;;;;;;;2053911;28;7109;-63
2021/01/03 04:34:42;;;;;;;;;;;;;;;;;;2053954;28;7010;-64
2021/01/03 04:35:44;;;;;;;;;;;;;;;;;;2054255;28;7009;-64
2021/01/03 04:36:53;;;;;;;;;;;;;;;;;;2053732;28;8097;-64
2021/01/03 04:37:55;;;;;;;;;;;;;;;;;;2053748;28;7245;-63
2021/01/03 04:38:57;;;;;;;;;;;;;;;;;;2053881;28;7033;-65
2021/01/03 04:39:59;;;;;;;;;;;;;;;;;;2053457;28;7121;-63
2021/01/03 04:41:01;;;;;;;;;;;;;;;;;;2053524;28;8017;-63
2021/01/03 04:42:15;;;;;;;;;;;;;;;;;;2053826;28;7010;-64
2021/01/03 04:43:20;;;;;;;;;;;;;;;;;;2053886;28;7046;-63
2021/01/03 04:44:30;;;;;;;;;;;;;;;;;;2054274;28;7113;-65
2021/01/03 04:45:37;;;;;;;;;;;;;;;;;;2053637;28;7030;-63
2021/01/03 04:46:41;;;;;;;;;;;;;;;;;;2052417;28;7042;-65
2021/01/03 04:47:52;;;;;;;;;;;;;;;;;;2053836;28;7010;-63
2021/01/03 04:48:59;;;;;;;;;;;;;;;;;;2053456;28;7058;-63
2021/01/03 04:50:10;;;;;;;;;;;;;;;;;;2054080;28;7014;-63
2021/01/03 04:51:22;;;;;;;;;;;;;;;;;;2053845;28;7017;-63
2021/01/03 04:52:27;;;;;;;;;;;;;;;;;;2053995;28;7018;-64
2021/01/03 04:53:37;;;;;;;;;;;;;;;;;;2052479;28;7046;-63
2021/01/03 04:54:49;;;;;;;;;;;;;;;;;;2053752;28;7159;-65
2021/01/03 04:55:56;;;;;;;;;;;;;;;;;;2052945;28;8120;-65
2021/01/03 04:56:58;;;;;;;;;;;;;;;;;;2053708;28;7109;-64
2021/01/03 04:58:05;;;;;;;;;;;;;;;;;;2054154;28;7110;-65
2021/01/03 04:59:12;;;;;;;;;;;;;;;;;;2054079;28;7042;-64
2021/01/03 05:00:16;;;;;;;;;;;;;;;;;;2054149;28;7052;-64
2021/01/03 05:01:24;;;;;;;;;;;;;;;;;;2054326;28;7117;-63
2021/01/03 05:02:35;;;;;;;;;;;;;;;;;;2053512;28;7022;-64
2021/01/03 05:03:56;;;;;;;;;;;;;;;;;;2054304;28;7305;-63
2021/01/03 05:05:08;;;;;;;;;;;;;;;;;;2053994;28;7010;-64
2021/01/03 05:06:15;;;;;;;;;;;;;;;;;;2053780;28;7094;-64
2021/01/03 05:07:17;;;;;;;;;;;;;;;;;;2054425;28;7088;-65
2021/01/03 05:08:30;;;;;;;;;;;;;;;;;;2052922;28;7014;-64
2021/01/03 05:09:32;;;;;;;;;;;;;;;;;;2053583;28;7089;-65
2021/01/03 05:10:34;;;;;;;;;;;;;;;;;;2053371;28;7009;-63
2021/01/03 05:11:56;;;;;;;;;;;;;;;;;;2053486;28;7006;-63
2021/01/03 05:13:10;;;;;;;;;;;;;;;;;;2053624;28;8231;-65
2021/01/03 05:14:15;;;;;;;;;;;;;;;;;;2053696;28;7093;-64
2021/01/03 05:15:37;;;;;;;;;;;;;;;;;;2053784;28;7026;-65
2021/01/03 05:16:39;;;;;;;;;;;;;;;;;;2053830;28;7079;-63
2021/01/03 05:17:41;;;;;;;;;;;;;;;;;;2054679;28;7394;-65
2021/01/03 05:18:43;;;;;;;;;;;;;;;;;;2053805;28;8060;-65
2021/01/03 05:19:46;;;;;;;;;;;;;;;;;;2054432;28;7109;-64
2021/01/03 05:20:58;;;;;;;;;;;;;;;;;;2053120;28;7013;-63
2021/01/03 05:22:00;;;;;;;;;;;;;;;;;;2053716;28;7022;-64
2021/01/03 05:23:28;;;;;;;;;;;;;;;;;;2053650;28;7046;-64
2021/01/03 05:24:41;;;;;;;;;;;;;;;;;;2037990;29;7089;-63
2021/01/03 05:25:45;;;;;;;;;;;;;;;;;;2038420;29;7362;-64
2021/01/03 05:26:47;;;;;;;;;;;;;;;;;;2038716;29;7017;-63
2021/01/03 05:28:06;;;;;;;;;;;;;;;;;;2038758;29;7009;-65
2021/01/03 05:29:10;;;;;;;;;;;;;;;;;;2037632;29;7013;-62
2021/01/03 05:30:14;;;;;;;;;;;;;;;;;;2038068;29;7014;-65
2021/01/03 05:31:18;;;;;;;;;;;;;;;;;;2038027;29;7997;-65
2021/01/03 05:32:33;;;;;;;;;;;;;;;;;;2038610;29;7017;-64
2021/01/03 05:33:35;;;;;;;;;;;;;;;;;;2037243;29;7018;-64
2021/01/03 05:34:39;;;;;;;;;;;;;;;;;;2038124;29;7821;-63
2021/01/03 05:35:42;;;;;;;;;;;;;;;;;;2037098;29;7010;-64
2021/01/03 05:36:46;;;;;;;;;;;;;;;;;;2038636;29;7001;-64
2021/01/03 05:37:51;;;;;;;;;;;;;;;;;;2038531;29;7374;-64
2021/01/03 05:38:53;;;;;;;;;;;;;;;;;;2038968;29;7089;-63
2021/01/03 05:39:55;;;;;;;;;;;;;;;;;;2037678;29;7360;-63
2021/01/03 05:41:07;;;;;;;;;;;;;;;;;;2037346;29;7038;-63
2021/01/03 05:42:18;;;;;;;;;;;;;;;;;;2037419;29;7114;-64
2021/01/03 05:43:22;;;;;;;;;;;;;;;;;;2037842;29;7096;-64
2021/01/03 05:44:30;;;;;;;;;;;;;;;;;;2037666;29;7029;-64
2021/01/03 05:45:33;;;;;;;;;;;;;;;;;;2037790;29;7138;-62
2021/01/03 05:46:44;;;;;;;;;;;;;;;;;;2037981;29;7002;-64
2021/01/03 05:48:00;;;;;;;;;;;;;;;;;;2038601;29;7010;-63
2021/01/03 05:49:09;;;;;;;;;;;;;;;;;;2037682;29;7100;-64
2021/01/03 05:50:23;;;;;;;;;;;;;;;;;;2037827;29;8056;-64
2021/01/03 05:51:55;;;;;;;;;;;;;;;;;;2038019;29;7014;-63
2021/01/03 05:53:15;;;;;;;;;;;;;;;;;;2029865;29;7010;-63
2021/01/03 05:54:23;;;;;;;;;;;;;;;;;;2037902;29;7442;-63
2021/01/03 05:55:26;;;;;;;;;;;;;;;;;;2037961;29;7010;-64
2021/01/03 05:56:28;;;;;;;;;;;;;;;;;;2037769;29;7009;-63
2021/01/03 05:57:33;;;;;;;;;;;;;;;;;;2038664;29;7014;-65
2021/01/03 05:58:37;;;;;;;;;;;;;;;;;;2037816;29;7121;-63
2021/01/03 05:59:41;;;;;;;;;;;;;;;;;;2038057;29;7374;-63
2021/01/03 06:00:43;;;;;;;;;;;;;;;;;;2037892;29;7089;-65
2021/01/03 06:01:45;;;;;;;;;;;;;;;;;;2037849;29;7163;-62
2021/01/03 06:02:47;;;;;;;;;;;;;;;;;;2038249;29;7026;-64
2021/01/03 06:04:07;;;;;;;;;;;;;;;;;;2044648;29;8009;-64
2021/01/03 06:05:16;;;;;;;;;;;;;;;;;;2042897;29;7081;-63
2021/01/03 06:06:24;;;;;;;;;;;;;;;;;;2038500;29;7089;-62
2021/01/03 06:07:29;;;;;;;;;;;;;;;;;;2038300;29;7046;-62
2021/01/03 06:08:34;;;;;;;;;;;;;;;;;;2038103;29;8052;-64
2021/01/03 06:09:38;;;;;;;;;;;;;;;;;;2039942;29;7105;-63
2021/01/03 06:10:41;;;;;;;;;;;;;;;;;;2039858;29;7092;-63
2021/01/03 06:12:09;;;;;;;;;;;;;;;;;;2039339;29;7017;-62
2021/01/03 06:13:13;;;;;;;;;;;;;;;;;;2023765;29;7093;-64
2021/01/03 06:14:23;;;;;;;;;;;;;;;;;;2039310;29;8132;-65
2021/01/03 06:15:33;;;;;;;;;;;;;;;;;;2039613;28;7046;-63
2021/01/03 06:16:46;;;;;;;;;;;;;;;;;;2039290;29;7125;-62
2021/01/03 06:17:48;;;;;;;;;;;;;;;;;;2039496;29;7014;-64
2021/01/03 06:18:51;;;;;;;;;;;;;;;;;;2039153;29;7333;-63
2021/01/03 06:20:00;;;;;;;;;;;;;;;;;;2039494;29;7010;-62
2021/01/03 06:21:04;;;;;;;;;;;;;;;;;;2039335;29;8193;-62
2021/01/03 06:22:41;;;;;;;;;;;;;;;;;;2039436;29;7014;-63
2021/01/03 06:23:54;;;;;;;;;;;;;;;;;;2026419;29;7043;-63
2021/01/03 06:24:58;;;;;;;;;;;;;;;;;;2030197;29;7010;-64
2021/01/03 06:26:19;;;;;;;;;;;;;;;;;;2036016;28;7007;-64
2021/01/03 06:27:33;;;;;;;;;;;;;;;;;;2047081;28;7034;-64
2021/01/03 06:28:49;;;;;;;;;;;;;;;;;;2046473;28;7017;-63
2021/01/03 06:29:57;;;;;;;;;;;;;;;;;;2047509;28;8096;-63
2021/01/03 06:31:14;;;;;;;;;;;;;;;;;;2047180;28;7014;-65
2021/01/03 06:32:19;;;;;;;;;;;;;;;;;;2047443;28;7101;-65
2021/01/03 06:33:21;;;;;;;;;;;;;;;;;;2047460;28;7018;-64
2021/01/03 06:34:41;;;;;;;;;;;;;;;;;;2047133;28;7112;-63
2021/01/03 06:35:56;;;;;;;;;;;;;;;;;;2047417;28;7088;-63
2021/01/03 06:36:58;;;;;;;;;;;;;;;;;;2047929;28;7014;-63
2021/01/03 06:38:12;;;;;;;;;;;;;;;;;;2047836;28;7957;-63
2021/01/03 06:39:32;;;;;;;;;;;;;;;;;;2047571;28;7045;-64
2021/01/03 06:40:37;;;;;;;;;;;;;;;;;;2047237;28;7089;-64
2021/01/03 06:41:46;;;;;;;;;;;;;;;;;;2046624;28;7088;-62
2021/01/03 06:42:47;;;;;;;;;;;;;;;;;;2047087;28;7285;-63
2021/01/03 06:44:07;;;;;;;;;;;;;;;;;;2046979;28;7089;-64
2021/01/03 06:45:09;;;;;;;;;;;;;;;;;;2046458;28;7010;-63
2021/01/03 06:46:30;;;;;;;;;;;;;;;;;;2047065;28;7089;-63
2021/01/03 06:47:40;;;;;;;;;;;;;;;;;;2046947;28;8035;-63
2021/01/03 06:48:54;;;;;;;;;;;;;;;;;;2046962;28;7046;-64
2021/01/03 06:50:15;;;;;;;;;;;;;;;;;;2047131;28;7297;-64
2021/01/03 06:51:19;;;;;;;;;;;;;;;;;;2046459;28;7054;-63
2021/01/03 06:52:41;;;;;;;;;;;;;;;;;;2047149;28;7014;-63
2021/01/03 06:54:03;;;;;;;;;;;;;;;;;;2046483;28;7047;-64
2021/01/03 06:55:10;;;;;;;;;;;;;;;;;;2046908;28;7117;-61
2021/01/03 06:56:45;;;;;;;;;;;;;;;;;;2048200;28;7108;-63
2021/01/03 06:57:58;;;;;;;;;;;;;;;;;;2038421;29;7117;-65
2021/01/03 06:59:21;;;;;;;;;;;;;;;;;;2044918;28;7294;-63
2021/01/03 07:00:25;;;;;;;;;;;;;;;;;;2047443;28;7100;-62
2021/01/03 07:01:32;;;;;;;;;;;;;;;;;;2045658;28;7014;-62
2021/01/03 07:02:40;;;;;;;;;;;;;;;;;;2047358;28;7134;-64
2021/01/03 07:03:47;;;;;;;;;;;;;;;;;;2047501;28;7010;-62
2021/01/03 07:04:50;;;;;;;;;;;;;;;;;;2047495;28;7006;-63
2021/01/03 07:05:52;;;;;;;;;;;;;;;;;;2046556;28;7317;-63
2021/01/03 07:06:56;;;;;;;;;;;;;;;;;;2046807;28;7093;-63
2021/01/03 07:08:04;;;;;;;;;;;;;;;;;;2046061;28;7010;-62
2021/01/03 07:09:10;;;;;;;;;;;;;;;;;;2045853;28;7010;-64
2021/01/03 07:10:19;;;;;;;;;;;;;;;;;;2047191;28;7030;-63
2021/01/03 07:11:36;;;;;;;;;;;;;;;;;;2046382;28;7324;-62
2021/01/03 07:12:46;;;;;;;;;;;;;;;;;;2047406;28;7096;-64
2021/01/03 07:13:49;;;;;;;;;;;;;;;;;;2047507;28;7096;-64
2021/01/03 07:14:54;;;;;;;;;;;;;;;;;;2047266;28;7093;-64
2021/01/03 07:15:58;;;;;;;;;;;;;;;;;;2046982;28;7054;-63
2021/01/03 07:17:00;;;;;;;;;;;;;;;;;;2048643;28;8097;-64
2021/01/03 07:18:22;;;;;;;;;;;;;;;;;;2046669;28;7141;-64
2021/01/03 07:19:27;;;;;;;;;;;;;;;;;;2048314;28;7013;-63
2021/01/03 07:20:48;;;;;;;;;;;;;;;;;;2043585;28;7101;-62
2021/01/03 07:21:50;;;;;;;;;;;;;;;;;;2045524;28;7035;-63
2021/01/03 07:22:51;;;;;;;;;;;;;;;;;;2045359;28;7067;-63
2021/01/03 07:23:55;;;;;;;;;;;;;;;;;;2048943;28;7038;-63
2021/01/03 07:25:04;;;;;;;;;;;;;;;;;;2053100;28;7009;-62
2021/01/03 07:26:13;;;;;;;;;;;;;;;;;;2051795;28;7093;-63
2021/01/03 07:27:35;;;;;;;;;;;;;;;;;;2051793;28;7014;-64
2021/01/03 07:28:37;;;;;;;;;;;;;;;;;;2052195;28;7010;-64
2021/01/03 07:29:52;;;;;;;;;;;;;;;;;;2053669;28;7042;-63
2021/01/03 07:31:00;;;;;;;;;;;;;;;;;;2053417;28;7109;-63
2021/01/03 07:32:04;;;;;;;;;;;;;;;;;;2053712;28;7010;-64
2021/01/03 07:33:19;;;;;;;;;;;;;;;;;;2053433;28;7135;-65
2021/01/03 07:34:27;;;;;;;;;;;;;;;;;;2051551;28;7085;-64
2021/01/03 07:35:33;;;;;;;;;;;;;;;;;;2055034;28;9024;-65
2021/01/03 07:36:35;;;;;;;;;;;;;;;;;;2054549;28;7014;-62